createdAt,value
2022-11-23T00:00:59.592Z,99081.91
2022-11-23T00:03:27.154Z,99083.16
2022-11-23T00:05:54.482Z,99080.66
2022-11-23T00:08:21.920Z,99085.81
2022-11-23T00:10:49.304Z,99101.78
2022-11-23T00:13:16.717Z,99110.81
2022-11-23T00:15:44.102Z,99104.91
2022-11-23T00:18:11.550Z,99108.34
2022-11-23T00:20:39.668Z,99111.28
2022-11-23T00:23:07.059Z,99115.84
2022-11-23T00:25:35.220Z,99119.16
2022-11-23T00:28:02.597Z,99120.03
2022-11-23T00:30:30.164Z,99113.38
2022-11-23T00:32:57.851Z,99118.22
2022-11-23T00:35:25.252Z,99126.53
2022-11-23T00:37:52.800Z,99119.00
2022-11-23T00:40:20.165Z,99120.47
2022-11-23T00:42:47.596Z,99118.63
2022-11-23T00:45:15.136Z,99122.16
2022-11-23T00:47:42.661Z,99122.28
2022-11-23T00:50:10.085Z,99135.72
2022-11-23T00:52:37.552Z,99125.97
2022-11-23T00:55:05.851Z,99140.00
2022-11-23T00:57:34.351Z,99123.34
2022-11-23T01:00:02.198Z,99120.75
2022-11-23T01:02:30.294Z,99128.63
2022-11-23T01:04:57.655Z,99134.22
2022-11-23T01:07:25.098Z,99142.56
2022-11-23T01:09:52.573Z,99144.03
2022-11-23T01:12:20.017Z,99154.41
2022-11-23T01:14:48.279Z,99149.22
2022-11-23T01:17:15.664Z,99149.88
2022-11-23T01:19:43.109Z,99148.00
2022-11-23T01:22:10.611Z,99157.78
2022-11-23T01:24:38.055Z,99155.41
2022-11-23T01:27:08.273Z,99171.53
2022-11-23T01:29:35.668Z,99168.09
2022-11-23T01:32:03.152Z,99173.38
2022-11-23T01:34:30.600Z,99172.09
2022-11-23T01:36:59.856Z,99176.59
2022-11-23T01:39:28.792Z,99183.69
2022-11-23T01:41:56.323Z,99187.28
2022-11-23T01:44:29.815Z,99192.19
2022-11-23T01:47:04.488Z,99189.22
2022-11-23T01:49:43.752Z,99195.59
2022-11-23T01:52:18.165Z,99197.53
2022-11-23T01:54:50.332Z,99201.03
2022-11-23T01:57:28.729Z,99203.06
2022-11-23T01:59:57.340Z,99207.63
2022-11-23T02:02:26.658Z,99216.16
2022-11-23T02:04:55.338Z,99232.59
2022-11-23T02:07:24.369Z,99222.06
2022-11-23T02:09:52.842Z,99229.16
2022-11-23T02:12:20.361Z,99219.00
2022-11-23T02:14:47.797Z,99224.13
2022-11-23T02:17:15.250Z,99223.66
2022-11-23T02:20:03.332Z,99240.41
2022-11-23T02:23:10.865Z,99247.75
2022-11-23T02:25:45.936Z,99241.63
2022-11-23T02:28:18.671Z,99244.06
2022-11-23T02:30:49.596Z,99245.69
2022-11-23T02:33:17.236Z,99243.19
2022-11-23T02:35:52.982Z,99247.91
2022-11-23T02:38:21.688Z,99270.47
2022-11-23T02:40:49.102Z,99263.72
2022-11-23T02:43:16.511Z,99257.50
2022-11-23T02:45:51.611Z,99264.31
2022-11-23T02:48:19.282Z,99263.44
2022-11-23T02:50:46.666Z,99259.81
2022-11-23T02:53:14.704Z,99256.19
2022-11-23T02:55:42.044Z,99267.63
2022-11-23T02:58:09.482Z,99271.59
2022-11-23T03:00:37.184Z,99276.09
2022-11-23T03:03:04.615Z,99270.78
2022-11-23T03:05:33.959Z,99279.75
2022-11-23T03:08:06.757Z,99284.84
2022-11-23T03:10:34.859Z,99282.94
2022-11-23T03:13:02.542Z,99288.13
2022-11-23T03:15:34.068Z,99278.94
2022-11-23T03:18:03.970Z,99278.94
2022-11-23T03:20:32.458Z,99282.50
2022-11-23T03:22:59.810Z,99286.88
2022-11-23T03:25:27.434Z,99292.13
2022-11-23T03:27:56.919Z,99292.22
2022-11-23T03:30:24.269Z,99299.50
2022-11-23T03:32:51.910Z,99296.91
2022-11-23T03:35:20.460Z,99298.13
2022-11-23T03:38:06.475Z,99300.16
2022-11-23T03:40:34.520Z,99302.06
2022-11-23T03:43:15.365Z,99285.84
2022-11-23T03:45:43.420Z,99293.72
2022-11-23T03:48:11.509Z,99285.75
2022-11-23T03:50:40.086Z,99290.34
2022-11-23T03:53:08.291Z,99293.28
2022-11-23T03:55:35.776Z,99304.84
2022-11-23T03:58:04.331Z,99299.44
2022-11-23T04:00:35.868Z,99300.06
2022-11-23T04:03:04.464Z,99311.84
2022-11-23T04:05:50.462Z,99300.03
2022-11-23T04:08:47.166Z,99305.84
2022-11-23T04:11:22.035Z,99299.81
2022-11-23T04:13:50.848Z,99303.31
2022-11-23T04:16:19.564Z,99308.81
2022-11-23T04:18:46.976Z,99301.09
2022-11-23T04:21:14.454Z,99312.53
2022-11-23T04:23:41.925Z,99316.03
2022-11-23T04:26:11.748Z,99318.41
2022-11-23T04:28:42.545Z,99318.13
2022-11-23T04:31:10.101Z,99304.97
2022-11-23T04:33:51.450Z,99302.66
2022-11-23T04:36:20.705Z,99311.28
2022-11-23T04:38:48.121Z,99313.75
2022-11-23T04:41:18.669Z,99317.91
2022-11-23T04:43:48.111Z,99318.13
2022-11-23T04:46:15.743Z,99319.97
2022-11-23T04:48:46.079Z,99319.19
2022-11-23T04:51:16.704Z,99331.53
2022-11-23T04:53:44.269Z,99332.25
2022-11-23T04:56:11.762Z,99324.69
2022-11-23T04:58:41.398Z,99332.06
2022-11-23T05:01:09.022Z,99336.97
2022-11-23T05:03:47.492Z,99337.69
2022-11-23T05:06:14.943Z,99346.00
2022-11-23T05:08:43.052Z,99339.25
2022-11-23T05:11:27.226Z,99339.44
2022-11-23T05:13:57.082Z,99350.59
2022-11-23T05:16:24.865Z,99347.19
2022-11-23T05:18:52.276Z,99345.84
2022-11-23T05:21:19.714Z,99359.69
2022-11-23T05:23:47.169Z,99340.28
2022-11-23T05:26:14.813Z,99343.66
2022-11-23T05:28:43.249Z,99345.47
2022-11-23T05:31:14.324Z,99338.38
2022-11-23T05:33:43.755Z,99340.00
2022-11-23T05:36:14.005Z,99344.06
2022-11-23T05:38:43.004Z,99341.13
2022-11-23T05:41:26.154Z,99340.41
2022-11-23T05:43:58.051Z,99344.97
2022-11-23T05:46:28.511Z,99336.50
2022-11-23T05:48:56.093Z,99340.75
2022-11-23T05:51:25.054Z,99346.97
2022-11-23T05:53:53.007Z,99340.81
2022-11-23T05:56:29.687Z,99342.59
2022-11-23T05:59:12.561Z,99343.28
2022-11-23T06:01:42.871Z,99361.41
2022-11-23T06:04:13.932Z,99364.97
2022-11-23T06:06:45.464Z,99350.94
2022-11-23T06:09:13.015Z,99344.31
2022-11-23T06:11:44.879Z,99362.47
2022-11-23T06:14:15.994Z,99380.78
2022-11-23T06:16:46.021Z,99371.97
2022-11-23T06:19:31.720Z,99366.44
2022-11-23T06:21:59.685Z,99371.72
2022-11-23T06:24:31.335Z,99380.88
2022-11-23T06:27:21.487Z,99370.78
2022-11-23T06:29:51.020Z,99385.34
2022-11-23T06:32:19.231Z,99380.25
2022-11-23T06:34:47.426Z,99399.72
2022-11-23T06:37:14.961Z,99394.44
2022-11-23T06:39:44.900Z,99396.09
2022-11-23T06:45:00.901Z,99419.59
2022-11-23T06:47:29.298Z,99415.50
2022-11-23T06:49:57.932Z,99416.69
2022-11-23T06:52:28.806Z,99431.56
2022-11-23T06:54:56.324Z,99426.75
2022-11-23T06:57:25.536Z,99421.34
2022-11-23T06:59:54.488Z,99432.06
2022-11-23T07:02:27.619Z,99432.72
2022-11-23T07:04:57.710Z,99439.59
2022-11-23T07:07:27.274Z,99442.84
2022-11-23T07:10:07.215Z,99450.63
2022-11-23T07:12:50.323Z,99464.47
2022-11-23T07:15:20.679Z,99464.34
2022-11-23T07:17:48.672Z,99475.31
2022-11-23T07:20:16.630Z,99480.81
2022-11-23T07:22:45.351Z,99486.75
2022-11-23T07:25:16.633Z,99482.63
2022-11-23T07:27:44.470Z,99484.28
2022-11-23T07:30:12.761Z,99492.91
2022-11-23T07:32:40.175Z,99491.00
2022-11-23T07:35:08.744Z,99491.78
2022-11-23T07:37:38.865Z,99503.34
2022-11-23T07:40:07.281Z,99499.03
2022-11-23T07:42:43.098Z,99503.03
2022-11-23T07:45:12.447Z,99506.59
2022-11-23T07:47:45.199Z,99505.34
2022-11-23T07:50:13.498Z,99492.25
2022-11-23T07:52:41.738Z,99508.03
2022-11-23T07:55:09.496Z,99512.44
2022-11-23T07:57:36.914Z,99505.16
2022-11-23T08:00:05.098Z,99519.84
2022-11-23T08:02:52.648Z,99515.28
2022-11-23T08:05:28.245Z,99528.09
2022-11-23T08:08:00.488Z,99527.88
2022-11-23T08:10:29.613Z,99524.34
2022-11-23T08:13:01.692Z,99533.75
2022-11-23T08:15:29.438Z,99535.00
2022-11-23T08:18:01.166Z,99530.34
2022-11-23T08:20:30.003Z,99532.72
2022-11-23T08:22:58.002Z,99541.19
2022-11-23T08:25:27.796Z,99531.25
2022-11-23T08:28:00.973Z,99544.97
2022-11-23T08:30:29.828Z,99537.91
2022-11-23T08:32:57.358Z,99541.06
2022-11-23T08:35:24.917Z,99548.63
2022-11-23T08:37:52.979Z,99541.25
2022-11-23T08:40:25.017Z,99551.56
2022-11-23T08:42:52.968Z,99554.53
2022-11-23T08:45:20.945Z,99564.84
2022-11-23T08:47:48.682Z,99561.88
2022-11-23T08:50:16.115Z,99561.53
2022-11-23T08:52:43.801Z,99563.97
2022-11-23T08:55:11.951Z,99568.25
2022-11-23T08:57:39.339Z,99554.53
2022-11-23T09:00:07.392Z,99559.53
2022-11-23T09:02:34.743Z,99559.00
2022-11-23T09:05:02.059Z,99560.47
2022-11-23T09:07:29.452Z,99558.28
2022-11-23T09:09:56.951Z,99558.84
2022-11-23T09:12:24.315Z,99564.56
2022-11-23T09:14:53.090Z,99569.53
2022-11-23T09:17:20.480Z,99562.28
2022-11-23T09:19:50.296Z,99568.38
2022-11-23T09:22:17.716Z,99563.06
2022-11-23T09:24:45.073Z,99563.59
2022-11-23T09:27:12.564Z,99568.78
2022-11-23T09:29:39.887Z,99560.66
2022-11-23T09:32:07.271Z,99557.94
2022-11-23T09:34:34.868Z,99562.16
2022-11-23T09:37:02.611Z,99554.22
2022-11-23T09:39:29.953Z,99567.16
2022-11-23T09:42:09.469Z,99562.41
2022-11-23T09:44:55.450Z,99566.72
2022-11-23T09:47:40.646Z,99565.38
2022-11-23T09:50:12.663Z,99568.72
2022-11-23T09:52:45.555Z,99564.53
2022-11-23T09:55:19.424Z,99560.06
2022-11-23T09:57:48.289Z,99554.63
2022-11-23T10:00:23.281Z,99565.25
2022-11-23T10:02:50.662Z,99561.78
2022-11-23T10:05:21.541Z,99553.69
2022-11-23T10:08:17.596Z,99554.28
2022-11-23T10:10:58.327Z,99560.41
2022-11-23T10:13:43.109Z,99553.84
2022-11-23T10:16:21.904Z,99555.09
2022-11-23T10:19:20.158Z,99561.84
2022-11-23T10:21:59.727Z,99555.88
2022-11-23T10:24:33.798Z,99553.84
2022-11-23T10:27:03.299Z,99553.53
2022-11-23T10:29:38.567Z,99552.59
2022-11-23T10:32:13.239Z,99547.97
2022-11-23T10:34:55.848Z,99547.50
2022-11-23T10:37:23.283Z,99538.31
2022-11-23T10:39:50.716Z,99552.47
2022-11-23T10:42:40.712Z,99548.72
2022-11-23T10:45:23.567Z,99551.09
2022-11-23T10:47:58.868Z,99549.38
2022-11-23T10:50:26.229Z,99553.75
2022-11-23T10:53:02.275Z,99539.09
2022-11-23T10:55:31.502Z,99540.91
2022-11-23T10:57:59.522Z,99537.44
2022-11-23T11:00:31.269Z,99547.22
2022-11-23T11:03:00.078Z,99551.47
2022-11-23T11:05:53.506Z,99545.13
2022-11-23T11:08:19.058Z,99543.25
2022-11-23T11:10:50.190Z,99542.13
2022-11-23T11:13:32.263Z,99551.84
2022-11-23T11:16:05.957Z,99541.28
2022-11-23T11:18:36.106Z,99547.03
2022-11-23T11:21:34.112Z,99545.75
2022-11-23T11:24:05.281Z,99546.53
2022-11-23T11:26:35.937Z,99544.09
2022-11-23T11:29:06.560Z,99546.47
2022-11-23T11:31:49.792Z,99545.50
2022-11-23T11:34:27.765Z,99542.44
2022-11-23T11:37:29.064Z,99546.25
2022-11-23T11:40:11.047Z,99542.75
2022-11-23T11:42:56.820Z,99539.41
2022-11-23T11:48:40.981Z,99527.38
2022-11-23T11:51:24.003Z,99523.22
2022-11-23T11:54:13.088Z,99526.06
2022-11-23T11:56:45.361Z,99534.50
2022-11-23T11:59:27.011Z,99530.25
2022-11-23T12:02:00.924Z,99519.53
2022-11-23T12:04:45.283Z,99524.63
2022-11-23T12:07:21.235Z,99516.50
2022-11-23T12:09:53.010Z,99514.69
2022-11-23T12:12:26.649Z,99523.63
2022-11-23T12:14:58.853Z,99530.81
2022-11-23T12:17:35.362Z,99522.94
2022-11-23T12:20:29.076Z,99521.56
2022-11-23T12:22:59.535Z,99519.22
2022-11-23T12:25:36.769Z,99515.78
2022-11-23T12:28:11.590Z,99517.75
2022-11-23T12:30:57.158Z,99501.03
2022-11-23T12:33:49.090Z,99512.19
2022-11-23T12:36:36.672Z,99509.34
2022-11-23T12:39:29.125Z,99510.22
2022-11-23T12:42:23.520Z,99513.13
2022-11-23T12:45:09.995Z,99503.31
2022-11-23T12:47:45.526Z,99504.66
2022-11-23T12:50:21.979Z,99510.28
2022-11-23T12:53:23.497Z,99498.94
2022-11-23T12:56:05.113Z,99504.59
2022-11-23T12:58:34.820Z,99508.28
2022-11-23T13:01:30.675Z,99505.22
2022-11-23T13:04:35.886Z,99502.59
2022-11-23T13:07:30.619Z,99504.28
2022-11-23T13:10:01.216Z,99508.69
2022-11-23T13:12:46.960Z,99513.38
2022-11-23T13:16:07.275Z,99507.41
2022-11-23T13:19:18.873Z,99512.00
2022-11-23T13:21:47.956Z,99504.00
2022-11-23T13:24:25.120Z,99512.81
2022-11-23T13:27:14.467Z,99509.50
2022-11-23T13:30:01.275Z,99519.22
2022-11-23T13:32:46.105Z,99516.28
2022-11-23T13:35:16.626Z,99516.16
2022-11-23T13:37:56.024Z,99513.00
2022-11-23T13:40:33.478Z,99516.97
2022-11-23T13:43:29.879Z,99522.38
2022-11-23T13:46:28.721Z,99518.94
2022-11-23T13:48:59.905Z,99516.56
2022-11-23T13:51:30.380Z,99522.41
2022-11-23T13:54:02.656Z,99520.06
2022-11-23T13:56:40.119Z,99521.69
2022-11-23T13:59:25.517Z,99518.44
2022-11-23T14:02:08.963Z,99532.34
2022-11-23T14:04:45.165Z,99523.16
2022-11-23T14:07:12.564Z,99525.94
2022-11-23T14:09:50.294Z,99536.47
2022-11-23T14:12:34.700Z,99530.47
2022-11-23T14:15:16.287Z,99536.16
2022-11-23T14:18:06.764Z,99530.69
2022-11-23T14:21:01.883Z,99537.03
2022-11-23T14:23:54.366Z,99537.28
2022-11-23T14:26:28.877Z,99542.63
2022-11-23T14:28:56.265Z,99533.03
2022-11-23T14:31:26.709Z,99535.69
2022-11-23T14:34:36.088Z,99527.06
2022-11-23T14:37:15.526Z,99527.28
2022-11-23T14:40:02.331Z,99541.38
2022-11-23T14:42:31.643Z,99536.56
2022-11-23T14:45:04.857Z,99535.75
2022-11-23T14:47:32.907Z,99555.47
2022-11-23T14:50:00.443Z,99552.88
2022-11-23T14:52:31.165Z,99548.81
2022-11-23T14:55:02.834Z,99563.00
2022-11-23T14:57:37.468Z,99563.84
2022-11-23T15:00:11.444Z,99559.88
2022-11-23T15:02:41.291Z,99561.72
2022-11-23T15:05:31.880Z,99558.94
2022-11-23T15:07:59.254Z,99570.28
2022-11-23T15:10:39.713Z,99567.63
2022-11-23T15:13:42.453Z,99573.09
2022-11-23T15:16:12.833Z,99581.06
2022-11-23T15:18:40.430Z,99578.72
2022-11-23T15:21:10.749Z,99581.22
2022-11-23T15:23:44.823Z,99590.16
2022-11-23T15:26:46.283Z,99585.06
2022-11-23T15:29:37.789Z,99578.81
2022-11-23T15:32:32.114Z,99590.50
2022-11-23T15:35:06.914Z,99600.41
2022-11-23T15:37:45.102Z,99602.34
2022-11-23T15:40:17.747Z,99596.47
2022-11-23T15:42:48.093Z,99594.72
2022-11-23T15:45:46.210Z,99601.84
2022-11-23T15:48:16.260Z,99608.09
2022-11-23T15:50:59.284Z,99610.31
2022-11-23T15:53:49.119Z,99605.19
2022-11-23T15:56:32.121Z,99623.91
2022-11-23T15:59:08.049Z,99625.72
2022-11-23T16:01:38.879Z,99621.84
2022-11-23T16:04:26.309Z,99631.69
2022-11-23T16:06:54.235Z,99628.31
2022-11-23T16:09:55.620Z,99637.19
2022-11-23T16:12:29.323Z,99639.03
2022-11-23T16:14:59.322Z,99652.25
2022-11-23T16:17:28.931Z,99641.94
2022-11-23T16:19:58.353Z,99647.19
2022-11-23T16:22:38.938Z,99648.13
2022-11-23T16:25:08.009Z,99651.63
2022-11-23T16:27:36.635Z,99661.50
2022-11-23T16:30:05.353Z,99654.72
2022-11-23T16:32:32.902Z,99655.63
2022-11-23T16:35:20.325Z,99663.41
2022-11-23T16:37:47.789Z,99654.81
2022-11-23T16:40:15.734Z,99664.56
2022-11-23T16:42:44.321Z,99667.22
2022-11-23T16:45:11.838Z,99652.47
2022-11-23T16:47:54.341Z,99659.38
2022-11-23T16:50:23.049Z,99663.03
2022-11-23T16:52:50.632Z,99657.06
2022-11-23T16:55:18.238Z,99659.13
2022-11-23T16:57:46.733Z,99667.09
2022-11-23T17:00:18.132Z,99656.94
2022-11-23T17:02:45.892Z,99660.66
2022-11-23T17:05:18.758Z,99657.00
2022-11-23T17:07:46.839Z,99652.88
2022-11-23T17:10:15.776Z,99657.44
2022-11-23T17:12:51.308Z,99661.28
2022-11-23T17:15:24.074Z,99669.88
2022-11-23T17:17:58.624Z,99661.84
2022-11-23T17:20:26.771Z,99668.38
2022-11-23T17:23:00.096Z,99672.19
2022-11-23T17:25:28.075Z,99663.41
2022-11-23T17:27:55.590Z,99660.81
2022-11-23T17:30:22.993Z,99674.19
2022-11-23T17:32:50.677Z,99683.94
2022-11-23T17:35:18.469Z,99671.41
2022-11-23T17:37:47.273Z,99681.22
2022-11-23T17:40:17.004Z,99676.09
2022-11-23T17:42:44.970Z,99689.38
2022-11-23T17:45:13.012Z,99692.22
2022-11-23T17:47:43.797Z,99687.00
2022-11-23T17:50:17.620Z,99709.47
2022-11-23T17:52:49.240Z,99706.25
2022-11-23T17:55:17.024Z,99707.31
2022-11-23T17:57:44.519Z,99702.97
2022-11-23T18:00:20.649Z,99705.34
2022-11-23T18:02:48.715Z,99710.72
2022-11-23T18:05:21.551Z,99705.41
2022-11-23T18:07:50.705Z,99731.94
2022-11-23T18:10:19.331Z,99718.84
2022-11-23T18:12:47.831Z,99717.09
2022-11-23T18:15:19.315Z,99712.78
2022-11-23T18:17:51.518Z,99724.38
2022-11-23T18:20:20.240Z,99718.31
2022-11-23T18:22:52.293Z,99720.38
2022-11-23T18:25:20.655Z,99728.69
2022-11-23T18:27:51.676Z,99732.28
2022-11-23T18:30:19.823Z,99737.66
2022-11-23T18:32:47.913Z,99739.63
2022-11-23T18:35:18.877Z,99745.13
2022-11-23T18:37:46.994Z,99749.28
2022-11-23T18:40:15.472Z,99735.44
2022-11-23T18:42:43.440Z,99752.97
2022-11-23T18:45:11.429Z,99748.56
2022-11-23T18:47:42.306Z,99750.47
2022-11-23T18:50:21.586Z,99742.84
2022-11-23T18:52:51.468Z,99758.41
2022-11-23T18:55:20.723Z,99763.81
2022-11-23T18:57:52.806Z,99767.53
2022-11-23T19:00:22.896Z,99778.94
2022-11-23T19:02:58.458Z,99792.38
2022-11-23T19:05:28.373Z,99796.75
2022-11-23T19:08:04.006Z,99807.59
2022-11-23T19:10:33.113Z,99794.56
2022-11-23T19:13:05.203Z,99788.47
2022-11-23T19:15:33.893Z,99790.31
2022-11-23T19:18:01.467Z,99808.59
2022-11-23T19:20:29.412Z,99818.19
2022-11-23T19:22:56.892Z,99815.69
2022-11-23T19:25:24.945Z,99830.63
2022-11-23T19:27:53.038Z,99835.31
2022-11-23T19:30:20.481Z,99836.41
2022-11-23T19:32:47.991Z,99848.78
2022-11-23T19:35:15.447Z,99855.72
2022-11-23T19:37:42.970Z,99858.59
2022-11-23T19:40:12.670Z,99862.09
2022-11-23T19:42:41.392Z,99840.16
2022-11-23T19:45:09.324Z,99862.06
2022-11-23T19:47:36.708Z,99857.63
2022-11-23T19:50:04.556Z,99855.91
2022-11-23T19:52:55.541Z,99869.00
2022-11-23T19:55:19.340Z,99855.72
2022-11-23T19:57:46.731Z,99861.19
2022-11-23T20:00:14.760Z,99859.84
2022-11-23T20:02:42.452Z,99861.72
2022-11-23T20:05:09.982Z,99865.97
2022-11-23T20:07:37.519Z,99872.94
2022-11-23T20:10:05.361Z,99866.09
2022-11-23T20:12:33.068Z,99880.41
2022-11-23T20:15:00.470Z,99886.09
2022-11-23T20:17:27.832Z,99891.38
2022-11-23T20:19:55.248Z,99896.47
2022-11-23T20:22:22.751Z,99892.28
2022-11-23T20:24:52.286Z,99910.69
2022-11-23T20:27:19.732Z,99908.16
2022-11-23T20:29:47.075Z,99903.84
2022-11-23T20:32:14.496Z,99906.31
2022-11-23T20:34:41.997Z,99899.97
2022-11-23T20:37:09.405Z,99913.16
2022-11-23T20:39:37.961Z,99903.66
2022-11-23T20:42:05.427Z,99910.28
2022-11-23T20:44:34.209Z,99912.66
2022-11-23T20:47:03.133Z,99912.66
2022-11-23T20:49:31.627Z,99926.34
2022-11-23T20:52:00.194Z,99916.53
2022-11-23T20:54:27.770Z,99920.75
2022-11-23T20:56:55.291Z,99930.38
2022-11-23T20:59:24.838Z,99928.78
2022-11-23T21:01:52.724Z,99916.38
2022-11-23T21:04:20.810Z,99903.66
2022-11-23T21:06:48.510Z,99917.88
2022-11-23T21:09:17.147Z,99930.16
2022-11-23T21:12:03.495Z,99920.38
2022-11-23T21:14:32.932Z,99917.66
2022-11-23T21:17:01.058Z,99908.59
2022-11-23T21:19:37.837Z,99926.41
2022-11-23T21:22:07.864Z,99920.34
2022-11-23T21:24:36.021Z,99919.88
2022-11-23T21:27:04.980Z,99900.53
2022-11-23T21:29:33.433Z,99901.31
2022-11-23T21:32:01.602Z,99922.75
2022-11-23T21:34:30.507Z,99917.34
2022-11-23T21:36:58.349Z,99903.25
2022-11-23T21:39:25.846Z,99916.41
2022-11-23T21:42:19.599Z,99896.28
2022-11-23T21:44:46.973Z,99918.06
2022-11-23T21:47:14.485Z,99919.84
2022-11-23T21:49:41.956Z,99930.59
2022-11-23T21:52:09.255Z,99932.38
2022-11-23T21:54:36.761Z,99935.25
2022-11-23T21:57:04.611Z,99938.34
2022-11-23T21:59:32.024Z,99935.22
2022-11-23T22:02:00.389Z,99931.41
2022-11-23T22:04:27.762Z,99929.47
2022-11-23T22:06:55.121Z,99924.25
2022-11-23T22:09:22.399Z,99931.97
2022-11-23T22:11:49.752Z,99934.72
2022-11-23T22:14:19.365Z,99944.44
2022-11-23T22:16:53.726Z,99938.31
2022-11-23T22:19:21.049Z,99941.94
2022-11-23T22:21:48.717Z,99938.50
2022-11-23T22:24:18.448Z,99947.31
2022-11-23T22:26:46.353Z,99949.97
2022-11-23T22:29:13.886Z,99956.16
2022-11-23T22:31:41.549Z,99955.44
2022-11-23T22:34:12.249Z,99958.84
2022-11-23T22:36:39.815Z,99966.50
2022-11-23T22:39:07.839Z,99972.44
2022-11-23T22:41:38.554Z,99974.13
2022-11-23T22:44:08.130Z,99973.31
2022-11-23T22:46:36.820Z,99982.78
2022-11-23T22:49:04.589Z,99984.59
2022-11-23T22:51:32.392Z,99963.41
2022-11-23T22:54:00.678Z,99975.53
2022-11-23T22:56:29.635Z,99973.72
2022-11-23T22:58:57.063Z,99977.28
2022-11-23T23:01:27.352Z,99985.34
2022-11-23T23:03:56.473Z,99974.00
2022-11-23T23:06:26.222Z,99970.38
2022-11-23T23:08:58.360Z,99971.31
2022-11-23T23:11:27.408Z,99977.59
2022-11-23T23:13:55.471Z,99977.50
2022-11-23T23:16:23.407Z,99969.75
2022-11-23T23:18:51.448Z,99977.00
2022-11-23T23:21:20.732Z,99989.41
2022-11-23T23:23:52.863Z,99970.97
2022-11-23T23:26:23.695Z,99987.69
2022-11-23T23:28:57.035Z,99985.09
2022-11-23T23:31:25.209Z,99988.72
2022-11-23T23:33:57.075Z,99994.94
2022-11-23T23:36:25.152Z,100001.28
2022-11-23T23:38:52.901Z,100009.03
2022-11-23T23:41:20.442Z,100013.44
2022-11-23T23:43:48.361Z,100005.84
2022-11-23T23:46:16.517Z,100012.88
2022-11-23T23:48:44.111Z,100005.13
2022-11-23T23:51:13.871Z,100021.72
2022-11-23T23:53:42.015Z,100013.09
2022-11-23T23:56:18.986Z,100029.38
2022-11-23T23:58:46.844Z,100025.84
